sensor_id;sensor_type;location;lat;lon;timestamp;P1;durP1;ratioP1;P2;durP2;ratioP2
1577;SDS011;57623;53.608;10.004;2022-10-16T05:02:34;4.50;;;2.28;;
1577;SDS011;57623;53.608;10.004;2022-10-16T05:05:23;4.00;;;2.30;;
1577;SDS011;57623;53.608;10.004;2022-10-16T05:08:12;5.43;;;2.83;;
1577;SDS011;57623;53.608;10.004;2022-10-16T05:11:02;2.77;;;2.57;;
1577;SDS011;57623;53.608;10.004;2022-10-16T05:13:51;4.13;;;2.73;;
1577;SDS011;57623;53.608;10.004;2022-10-16T05:16:42;5.10;;;3.30;;
1577;SDS011;57623;53.608;10.004;2022-10-16T05:19:34;4.93;;;3.03;;
1577;SDS011;57623;53.608;10.004;2022-10-16T05:22:25;4.50;;;3.10;;
1577;SDS011;57623;53.608;10.004;2022-10-16T05:25:14;4.37;;;2.90;;
1577;SDS011;57623;53.608;10.004;2022-10-16T05:28:04;3.70;;;2.93;;
1577;SDS011;57623;53.608;10.004;2022-10-16T05:30:53;4.23;;;2.60;;
1577;SDS011;57623;53.608;10.004;2022-10-16T05:33:46;4.75;;;3.20;;
1577;SDS011;57623;53.608;10.004;2022-10-16T05:36:37;4.27;;;3.60;;
1577;SDS011;57623;53.608;10.004;2022-10-16T05:39:40;3.93;;;2.90;;
1577;SDS011;57623;53.608;10.004;2022-10-16T05:42:30;5.33;;;3.50;;
1577;SDS011;57623;53.608;10.004;2022-10-16T05:45:27;5.10;;;2.80;;
1577;SDS011;57623;53.608;10.004;2022-10-16T05:48:15;3.47;;;2.80;;
1577;SDS011;57623;53.608;10.004;2022-10-16T05:51:05;3.03;;;2.83;;
1577;SDS011;57623;53.608;10.004;2022-10-16T05:53:56;4.83;;;2.63;;
1577;SDS011;57623;53.608;10.004;2022-10-16T05:56:47;2.80;;;2.53;;
1577;SDS011;57623;53.608;10.004;2022-10-16T05:59:50;3.25;;;2.47;;
1577;SDS011;57623;53.608;10.004;2022-10-16T06:02:39;2.90;;;2.57;;
1577;SDS011;57623;53.608;10.004;2022-10-16T06:05:29;4.30;;;2.57;;
1577;SDS011;57623;53.608;10.004;2022-10-16T06:08:22;3.13;;;2.23;;
1577;SDS011;57623;53.608;10.004;2022-10-16T06:11:15;4.72;;;2.60;;
1577;SDS011;57623;53.608;10.004;2022-10-16T06:14:06;3.03;;;2.60;;
1577;SDS011;57623;53.608;10.004;2022-10-16T06:16:55;4.60;;;2.67;;
1577;SDS011;57623;53.608;10.004;2022-10-16T06:19:46;2.60;;;2.40;;
1577;SDS011;57623;53.608;10.004;2022-10-16T06:22:49;3.97;;;2.90;;
1577;SDS011;57623;53.608;10.004;2022-10-16T06:25:42;3.55;;;2.70;;
1577;SDS011;57623;53.608;10.004;2022-10-16T06:28:46;3.60;;;2.40;;
1577;SDS011;57623;53.608;10.004;2022-10-16T06:31:36;3.57;;;2.53;;
1577;SDS011;57623;53.608;10.004;2022-10-16T06:34:26;3.30;;;2.83;;
1577;SDS011;57623;53.608;10.004;2022-10-16T06:37:15;3.93;;;2.53;;
1577;SDS011;57623;53.608;10.004;2022-10-16T06:40:08;5.07;;;2.87;;
1577;SDS011;57623;53.608;10.004;2022-10-16T06:42:57;3.60;;;2.50;;
1577;SDS011;57623;53.608;10.004;2022-10-16T06:45:52;4.60;;;2.93;;
1577;SDS011;57623;53.608;10.004;2022-10-16T06:48:41;2.57;;;2.20;;
1577;SDS011;57623;53.608;10.004;2022-10-16T06:51:31;3.67;;;2.50;;
1577;SDS011;57623;53.608;10.004;2022-10-16T06:54:27;3.20;;;2.83;;
1577;SDS011;57623;53.608;10.004;2022-10-16T06:57:27;3.03;;;2.73;;
1577;SDS011;57623;53.608;10.004;2022-10-16T07:00:17;3.73;;;2.50;;
1577;SDS011;57623;53.608;10.004;2022-10-16T07:03:08;4.90;;;2.97;;
1577;SDS011;57623;53.608;10.004;2022-10-16T07:06:01;4.13;;;3.00;;
1577;SDS011;57623;53.608;10.004;2022-10-16T07:08:53;3.33;;;3.03;;
1577;SDS011;57623;53.608;10.004;2022-10-16T07:11:42;3.20;;;2.90;;
1577;SDS011;57623;53.608;10.004;2022-10-16T07:14:34;3.47;;;3.17;;
1577;SDS011;57623;53.608;10.004;2022-10-16T07:17:23;3.37;;;3.00;;
1577;SDS011;57623;53.608;10.004;2022-10-16T07:20:19;4.73;;;3.30;;
1577;SDS011;57623;53.608;10.004;2022-10-16T07:23:08;4.20;;;2.70;;
1577;SDS011;57623;53.608;10.004;2022-10-16T07:25:58;3.83;;;3.37;;
1577;SDS011;57623;53.608;10.004;2022-10-16T07:28:49;3.43;;;3.13;;
1577;SDS011;57623;53.608;10.004;2022-10-16T07:31:40;3.20;;;2.90;;
1577;SDS011;57623;53.608;10.004;2022-10-16T07:34:29;4.20;;;3.43;;
1577;SDS011;57623;53.608;10.004;2022-10-16T07:37:21;3.57;;;3.27;;
1577;SDS011;57623;53.608;10.004;2022-10-16T07:40:24;5.00;;;3.27;;
1577;SDS011;57623;53.608;10.004;2022-10-16T07:43:22;3.93;;;3.53;;
1577;SDS011;57623;53.608;10.004;2022-10-16T07:46:12;5.33;;;4.00;;
1577;SDS011;57623;53.608;10.004;2022-10-16T07:49:01;3.80;;;3.40;;
1577;SDS011;57623;53.608;10.004;2022-10-16T07:51:50;3.40;;;3.10;;
1577;SDS011;57623;53.608;10.004;2022-10-16T07:54:42;4.23;;;3.30;;
1577;SDS011;57623;53.608;10.004;2022-10-16T07:57:32;4.83;;;3.30;;
1577;SDS011;57623;53.608;10.004;2022-10-16T08:00:22;3.73;;;3.30;;
1577;SDS011;57623;53.608;10.004;2022-10-16T08:03:13;3.20;;;3.00;;
1577;SDS011;57623;53.608;10.004;2022-10-16T08:06:02;3.23;;;2.97;;
1577;SDS011;57623;53.608;10.004;2022-10-16T08:08:52;3.43;;;3.00;;
1577;SDS011;57623;53.608;10.004;2022-10-16T08:18:05;3.80;;;3.50;;
1577;SDS011;57623;53.608;10.004;2022-10-16T08:21:03;4.37;;;3.83;;
1577;SDS011;57623;53.608;10.004;2022-10-16T08:23:53;4.93;;;3.87;;
1577;SDS011;57623;53.608;10.004;2022-10-16T08:26:59;4.17;;;3.77;;
1577;SDS011;57623;53.608;10.004;2022-10-16T08:29:49;3.97;;;3.63;;
1577;SDS011;57623;53.608;10.004;2022-10-16T08:32:54;4.90;;;4.40;;
1577;SDS011;57623;53.608;10.004;2022-10-16T08:35:52;3.43;;;3.13;;
1577;SDS011;57623;53.608;10.004;2022-10-16T08:38:41;4.10;;;3.67;;
1577;SDS011;57623;53.608;10.004;2022-10-16T08:48:05;3.17;;;2.97;;
1577;SDS011;57623;53.608;10.004;2022-10-16T08:51:03;3.50;;;3.20;;
1577;SDS011;57623;53.608;10.004;2022-10-16T08:53:53;3.60;;;3.30;;
1577;SDS011;57623;53.608;10.004;2022-10-16T08:56:43;3.63;;;3.20;;
1577;SDS011;57623;53.608;10.004;2022-10-16T08:59:37;4.83;;;3.40;;
1577;SDS011;57623;53.608;10.004;2022-10-16T09:02:44;4.17;;;3.40;;
1577;SDS011;57623;53.608;10.004;2022-10-16T09:11:52;3.20;;;3.00;;
1577;SDS011;57623;53.608;10.004;2022-10-16T09:15:17;2.80;;;2.60;;
1577;SDS011;57623;53.608;10.004;2022-10-16T09:18:26;3.40;;;2.90;;
1577;SDS011;57623;53.608;10.004;2022-10-16T09:21:32;2.63;;;2.43;;
1577;SDS011;57623;53.608;10.004;2022-10-16T09:24:31;4.93;;;2.57;;
1577;SDS011;57623;53.608;10.004;2022-10-16T09:37:38;3.87;;;2.07;;
1577;SDS011;57623;53.608;10.004;2022-10-16T09:40:42;2.63;;;2.10;;
1577;SDS011;57623;53.608;10.004;2022-10-16T09:43:49;3.27;;;2.17;;
1577;SDS011;57623;53.608;10.004;2022-10-16T09:46:46;2.97;;;1.80;;
1577;SDS011;57623;53.608;10.004;2022-10-16T09:49:35;4.33;;;2.23;;
1577;SDS011;57623;53.608;10.004;2022-10-16T09:52:28;3.17;;;1.80;;
1577;SDS011;57623;53.608;10.004;2022-10-16T09:55:19;2.08;;;1.88;;
1577;SDS011;57623;53.608;10.004;2022-10-16T09:58:11;3.33;;;1.47;;
1577;SDS011;57623;53.608;10.004;2022-10-16T10:01:05;2.60;;;1.70;;
1577;SDS011;57623;53.608;10.004;2022-10-16T10:03:55;3.53;;;2.00;;
1577;SDS011;57623;53.608;10.004;2022-10-16T10:06:53;2.13;;;1.92;;
1577;SDS011;57623;53.608;10.004;2022-10-16T10:09:45;4.03;;;1.97;;
1577;SDS011;57623;53.608;10.004;2022-10-16T10:12:53;4.20;;;1.90;;
1577;SDS011;57623;53.608;10.004;2022-10-16T10:15:44;1.80;;;1.60;;
1577;SDS011;57623;53.608;10.004;2022-10-16T10:18:34;3.57;;;2.00;;
1577;SDS011;57623;53.608;10.004;2022-10-16T10:21:25;5.67;;;2.23;;
1577;SDS011;57623;53.608;10.004;2022-10-16T10:24:16;2.83;;;1.60;;
1577;SDS011;57623;53.608;10.004;2022-10-16T10:27:08;2.80;;;2.20;;
1577;SDS011;57623;53.608;10.004;2022-10-16T10:30:04;4.33;;;1.97;;
1577;SDS011;57623;53.608;10.004;2022-10-16T10:33:03;3.70;;;2.63;;
1577;SDS011;57623;53.608;10.004;2022-10-16T10:35:59;5.30;;;2.43;;
1577;SDS011;57623;53.608;10.004;2022-10-16T10:38:49;3.33;;;2.13;;
1577;SDS011;57623;53.608;10.004;2022-10-16T10:44:52;2.17;;;1.47;;
1577;SDS011;57623;53.608;10.004;2022-10-16T10:47:55;3.45;;;1.42;;
1577;SDS011;57623;53.608;10.004;2022-10-16T10:50:49;1.40;;;1.30;;
1577;SDS011;57623;53.608;10.004;2022-10-16T10:53:49;2.07;;;1.50;;
1577;SDS011;57623;53.608;10.004;2022-10-16T10:56:45;3.40;;;1.30;;
1577;SDS011;57623;53.608;10.004;2022-10-16T10:59:40;2.07;;;1.60;;
1577;SDS011;57623;53.608;10.004;2022-10-16T11:02:48;2.90;;;1.50;;
1577;SDS011;57623;53.608;10.004;2022-10-16T11:34:09;3.33;;;1.40;;
1577;SDS011;57623;53.608;10.004;2022-10-16T11:37:38;3.10;;;0.90;;
1577;SDS011;57623;53.608;10.004;2022-10-16T11:40:32;3.37;;;1.17;;
1577;SDS011;57623;53.608;10.004;2022-10-16T11:43:42;3.07;;;1.07;;
1577;SDS011;57623;53.608;10.004;2022-10-16T11:47:06;1.60;;;1.17;;
1577;SDS011;57623;53.608;10.004;2022-10-16T11:50:28;1.80;;;1.17;;
1577;SDS011;57623;53.608;10.004;2022-10-16T11:53:55;3.80;;;1.00;;
1577;SDS011;57623;53.608;10.004;2022-10-16T11:57:14;2.67;;;1.17;;
1577;SDS011;57623;53.608;10.004;2022-10-16T12:00:34;2.20;;;1.10;;
1577;SDS011;57623;53.608;10.004;2022-10-16T12:03:46;2.67;;;1.08;;
1577;SDS011;57623;53.608;10.004;2022-10-16T12:10:32;1.65;;;1.33;;
1577;SDS011;57623;53.608;10.004;2022-10-16T12:13:49;2.67;;;1.13;;
1577;SDS011;57623;53.608;10.004;2022-10-16T12:17:26;2.70;;;1.27;;
1577;SDS011;57623;53.608;10.004;2022-10-16T12:20:53;1.60;;;1.10;;
1577;SDS011;57623;53.608;10.004;2022-10-16T12:24:26;2.00;;;1.10;;
1577;SDS011;57623;53.608;10.004;2022-10-16T12:31:18;2.00;;;0.97;;
1577;SDS011;57623;53.608;10.004;2022-10-16T12:34:41;4.57;;;1.30;;
1577;SDS011;57623;53.608;10.004;2022-10-16T12:38:06;1.83;;;1.10;;
1577;SDS011;57623;53.608;10.004;2022-10-16T12:41:02;3.07;;;1.27;;
1577;SDS011;57623;53.608;10.004;2022-10-16T12:44:20;2.35;;;1.17;;
1577;SDS011;57623;53.608;10.004;2022-10-16T12:47:47;3.53;;;1.10;;
1577;SDS011;57623;53.608;10.004;2022-10-16T12:51:11;1.70;;;1.10;;
1577;SDS011;57623;53.608;10.004;2022-10-16T12:54:11;1.77;;;1.20;;
1577;SDS011;57623;53.608;10.004;2022-10-16T12:57:24;4.27;;;1.30;;
1577;SDS011;57623;53.608;10.004;2022-10-16T13:00:25;2.83;;;1.00;;
1577;SDS011;57623;53.608;10.004;2022-10-16T13:10:10;1.67;;;1.10;;
1577;SDS011;57623;53.608;10.004;2022-10-16T13:13:19;3.27;;;1.30;;
1577;SDS011;57623;53.608;10.004;2022-10-16T13:16:30;4.23;;;1.47;;
1577;SDS011;57623;53.608;10.004;2022-10-16T13:19:52;1.57;;;1.20;;
1577;SDS011;57623;53.608;10.004;2022-10-16T13:23:15;1.20;;;0.90;;
1577;SDS011;57623;53.608;10.004;2022-10-16T13:26:26;2.30;;;1.30;;
1577;SDS011;57623;53.608;10.004;2022-10-16T13:29:21;2.53;;;1.10;;
1577;SDS011;57623;53.608;10.004;2022-10-16T13:32:38;1.90;;;1.03;;
1577;SDS011;57623;53.608;10.004;2022-10-16T13:35:47;2.37;;;1.30;;
1577;SDS011;57623;53.608;10.004;2022-10-16T13:38:59;1.53;;;1.17;;
1577;SDS011;57623;53.608;10.004;2022-10-16T14:11:07;4.80;;;1.27;;
1577;SDS011;57623;53.608;10.004;2022-10-16T14:14:34;2.10;;;1.30;;
1577;SDS011;57623;53.608;10.004;2022-10-16T14:17:51;3.80;;;1.80;;
1577;SDS011;57623;53.608;10.004;2022-10-16T14:21:11;1.50;;;1.15;;
1577;SDS011;57623;53.608;10.004;2022-10-16T14:37:50;3.23;;;1.50;;
1577;SDS011;57623;53.608;10.004;2022-10-16T14:40:57;2.23;;;1.10;;
1577;SDS011;57623;53.608;10.004;2022-10-16T14:44:14;2.60;;;1.13;;
1577;SDS011;57623;53.608;10.004;2022-10-16T14:47:32;2.83;;;1.10;;
1577;SDS011;57623;53.608;10.004;2022-10-16T14:50:52;2.93;;;1.30;;
1577;SDS011;57623;53.608;10.004;2022-10-16T14:58:17;4.53;;;1.60;;
1577;SDS011;57623;53.608;10.004;2022-10-16T15:01:25;2.13;;;1.63;;
1577;SDS011;57623;53.608;10.004;2022-10-16T15:04:22;2.50;;;1.20;;
1577;SDS011;57623;53.608;10.004;2022-10-16T15:07:39;4.50;;;1.50;;
1577;SDS011;57623;53.608;10.004;2022-10-16T15:10:56;4.00;;;1.53;;
1577;SDS011;57623;53.608;10.004;2022-10-16T15:24:48;2.70;;;1.57;;
1577;SDS011;57623;53.608;10.004;2022-10-16T15:27:55;3.03;;;1.70;;
1577;SDS011;57623;53.608;10.004;2022-10-16T15:31:08;2.90;;;1.50;;
1577;SDS011;57623;53.608;10.004;2022-10-16T15:34:03;4.93;;;1.70;;
1577;SDS011;57623;53.608;10.004;2022-10-16T15:37:21;3.20;;;1.57;;
1577;SDS011;57623;53.608;10.004;2022-10-16T15:48:14;3.17;;;1.40;;
1577;SDS011;57623;53.608;10.004;2022-10-16T15:51:18;2.30;;;1.33;;
1577;SDS011;57623;53.608;10.004;2022-10-16T15:54:34;5.37;;;2.40;;
1577;SDS011;57623;53.608;10.004;2022-10-16T15:57:43;6.50;;;1.93;;
1577;SDS011;57623;53.608;10.004;2022-10-16T16:01:04;3.63;;;1.97;;
1577;SDS011;57623;53.608;10.004;2022-10-16T16:39:56;4.40;;;3.17;;
1577;SDS011;57623;53.608;10.004;2022-10-16T16:43:16;2.40;;;1.67;;
1577;SDS011;57623;53.608;10.004;2022-10-16T16:46:35;3.10;;;1.60;;
1577;SDS011;57623;53.608;10.004;2022-10-16T16:49:52;3.43;;;1.53;;
1577;SDS011;57623;53.608;10.004;2022-10-16T16:53:15;2.47;;;1.60;;
1577;SDS011;57623;53.608;10.004;2022-10-16T16:56:41;2.13;;;1.60;;
1577;SDS011;57623;53.608;10.004;2022-10-16T17:02:57;1.70;;;1.33;;
1577;SDS011;57623;53.608;10.004;2022-10-16T23:07:09;12.03;;;8.00;;
1577;SDS011;57623;53.608;10.004;2022-10-16T23:10:06;9.10;;;7.83;;
1577;SDS011;57623;53.608;10.004;2022-10-16T23:12:55;8.13;;;7.27;;
1577;SDS011;57623;53.608;10.004;2022-10-16T23:15:44;7.40;;;6.80;;
1577;SDS011;57623;53.608;10.004;2022-10-16T23:18:47;8.30;;;7.50;;
1577;SDS011;57623;53.608;10.004;2022-10-16T23:21:38;10.90;;;8.37;;
1577;SDS011;57623;53.608;10.004;2022-10-16T23:24:28;8.07;;;7.33;;
1577;SDS011;57623;53.608;10.004;2022-10-16T23:30:33;7.73;;;7.03;;
1577;SDS011;57623;53.608;10.004;2022-10-16T23:33:25;8.20;;;6.90;;
1577;SDS011;57623;53.608;10.004;2022-10-16T23:36:17;8.63;;;7.47;;
1577;SDS011;57623;53.608;10.004;2022-10-16T23:39:10;8.47;;;7.53;;
1577;SDS011;57623;53.608;10.004;2022-10-16T23:41:59;7.60;;;6.87;;
1577;SDS011;57623;53.608;10.004;2022-10-16T23:44:51;8.40;;;7.20;;
1577;SDS011;57623;53.608;10.004;2022-10-16T23:47:44;7.17;;;6.53;;
1577;SDS011;57623;53.608;10.004;2022-10-16T23:50:36;7.70;;;6.20;;
1577;SDS011;57623;53.608;10.004;2022-10-16T23:53:36;7.07;;;6.47;;
1577;SDS011;57623;53.608;10.004;2022-10-16T23:56:25;7.57;;;6.67;;
1577;SDS011;57623;53.608;10.004;2022-10-16T23:59:14;7.20;;;6.50;;
